Time;durP1;ratioP1;P1;durP2;ratioP2;P2;SDS_P1;SDS_P2;PMS_P1;PMS_P2;Temp;Humidity;BMP_temperature;BMP_pressure;BME280_temperature;BME280_humidity;BME280_pressure;Samples;Min_cycle;Max_cycle;Signal;HPM_P1;HPM_P2
2022/10/08 00:00:01;;;;;;;15.13;7.57;;;;;;;;;;5020514;28;20032;-85
2022/10/08 00:02:28;;;;;;;15.85;7.20;;;;;;;;;;5031535;28;20044;-87
2022/10/08 00:04:54;;;;;;;11.48;6.80;;;13.80;99.90;;;;;;5036235;28;20026;-86
2022/10/08 00:07:20;;;;;;;15.85;8.82;;;;;;;;;;5011982;28;20026;-85
2022/10/08 00:09:45;;;;;;;17.45;8.25;;;13.80;99.90;;;;;;5033014;28;20025;-88
2022/10/08 00:12:12;;;;;;;22.52;10.45;;;;;;;;;;5022009;28;20049;-89
2022/10/08 00:14:39;;;;;;;16.15;7.85;;;;;;;;;;5030812;28;20026;-86
2022/10/08 00:17:05;;;;;;;11.45;6.80;;;;;;;;;;5014707;28;20033;-89
2022/10/08 00:19:31;;;;;;;10.65;6.38;;;;;;;;;;5037496;28;20029;-88
2022/10/08 00:21:57;;;;;;;17.35;7.07;;;13.80;99.90;;;;;;5020172;28;20564;-87
2022/10/08 00:24:23;;;;;;;13.13;7.10;;;13.80;99.90;;;;;;5032223;28;20037;-85
2022/10/08 00:26:51;;;;;;;13.77;7.50;;;13.80;99.90;;;;;;5060344;23;20660;-80
2022/10/08 00:29:19;;;;;;;18.50;7.95;;;13.80;99.90;;;;;;5006117;28;20563;-79
2022/10/08 00:31:47;;;;;;;15.88;6.93;;;13.80;99.90;;;;;;5021468;28;20029;-83
2022/10/08 00:34:22;;;;;;;14.95;7.25;;;13.80;99.90;;;;;;5022081;28;20149;-80
2022/10/08 00:36:51;;;;;;;15.18;7.10;;;13.80;99.90;;;;;;5015112;28;20030;-79
2022/10/08 00:39:19;;;;;;;9.65;6.50;;;13.80;99.90;;;;;;4999400;28;20034;-79
2022/10/08 00:41:50;;;;;;;10.07;6.50;;;13.80;99.90;;;;;;4985029;28;20076;-78
2022/10/08 00:44:41;;;;;;;13.45;6.63;;;13.80;99.90;;;;;;4998970;28;20542;-79
2022/10/08 00:47:36;;;;;;;12.60;6.60;;;13.80;99.90;;;;;;4998771;28;20068;-80
2022/10/08 00:50:23;;;;;;;10.68;6.95;;;13.80;99.90;;;;;;4999675;28;20030;-79
2022/10/08 00:53:02;;;;;;;12.02;6.93;;;13.80;99.90;;;;;;5006525;28;20025;-78
2022/10/08 00:55:28;;;;;;;14.45;6.82;;;15.50;99.90;;;;;;5003053;28;20112;-78
2022/10/08 00:58:01;;;;;;;13.07;7.32;;;13.70;99.90;;;;;;4997895;28;20091;-80
2022/10/08 01:00:28;;;;;;;13.20;7.00;;;13.80;99.90;;;;;;5003553;28;20025;-79
2022/10/08 01:02:54;;;;;;;12.98;6.72;;;13.70;99.90;;;;;;4997854;28;20598;-80
2022/10/08 01:05:37;;;;;;;13.93;7.32;;;13.80;99.90;;;;;;4991992;28;20041;-81
2022/10/08 01:08:23;;;;;;;14.13;7.32;;;13.80;99.90;;;;;;5006451;28;20494;-79
2022/10/08 01:11:09;;;;;;;14.98;8.35;;;13.70;99.90;;;;;;5005140;28;20126;-79
2022/10/08 01:13:48;;;;;;;17.95;7.80;;;13.70;99.90;;;;;;5002545;28;20388;-80
2022/10/08 01:16:23;;;;;;;15.60;7.78;;;13.70;99.90;;;;;;5004251;28;20491;-84
2022/10/08 01:19:15;;;;;;;14.55;8.13;;;13.70;99.90;;;;;;5011878;28;20042;-85
2022/10/08 01:21:57;;;;;;;18.98;9.23;;;13.60;99.90;;;;;;5020945;28;20402;-79
2022/10/08 01:25:31;;;;;;;18.52;9.90;;;13.50;99.90;;;;;;5020437;28;20426;-82
2022/10/08 01:27:36;;;;;;;22.45;9.63;;;13.60;99.90;;;;;;5018607;28;20058;-83
2022/10/08 01:30:08;;;;;;;15.27;8.20;;;13.60;99.90;;;;;;5005536;28;20045;-84
2022/10/08 01:32:39;;;;;;;15.98;9.07;;;13.50;99.90;;;;;;5021724;28;20467;-80
2022/10/08 01:35:18;;;;;;;15.35;8.68;;;13.50;99.90;;;;;;5016545;28;20041;-83
2022/10/08 01:37:45;;;;;;;16.02;8.93;;;13.50;99.90;;;;;;5023545;28;20158;-80
2022/10/08 01:40:18;;;;;;;14.85;7.53;;;13.50;99.90;;;;;;5016297;28;20036;-81
2022/10/08 01:42:46;;;;;;;16.67;8.32;;;13.50;99.90;;;;;;5034015;28;20030;-84
2022/10/08 01:45:18;;;;;;;15.43;8.60;;;13.50;99.90;;;;;;5027385;28;20066;-84
2022/10/08 01:47:46;;;;;;;14.57;8.38;;;13.40;99.90;;;;;;5015216;28;20053;-85
2022/10/08 01:50:32;;;;;;;13.25;8.27;;;13.40;99.90;;;;;;5029821;28;20057;-79
2022/10/08 01:53:13;;;;;;;14.15;8.30;;;13.40;99.90;;;;;;5027463;28;20029;-78
2022/10/08 01:55:42;;;;;;;15.30;8.98;;;13.40;99.90;;;;;;5022206;28;20026;-78
2022/10/08 01:58:26;;;;;;;15.45;7.93;;;13.30;99.90;;;;;;5011686;28;20018;-78
2022/10/08 02:00:54;;;;;;;15.45;7.80;;;13.30;99.90;;;;;;5021679;28;21420;-79
2022/10/08 02:03:19;;;;;;;14.50;8.13;;;13.30;99.90;;;;;;4997101;28;20124;-78
2022/10/08 02:05:49;;;;;;;13.13;8.27;;;13.20;99.90;;;;;;5024394;28;20069;-81
2022/10/08 02:08:15;;;;;;;16.85;8.13;;;13.20;99.90;;;;;;5032793;28;20030;-79
2022/10/08 02:10:42;;;;;;;11.40;7.82;;;13.20;99.90;;;;;;5042040;28;20025;-82
2022/10/08 02:13:09;;;;;;;16.83;8.13;;;13.10;99.90;;;;;;5040153;28;20017;-79
2022/10/08 02:15:58;;;;;;;14.98;8.52;;;14.40;99.90;;;;;;5029576;28;20034;-78
2022/10/08 02:18:50;;;;;;;15.03;7.87;;;13.10;99.90;;;;;;5021814;28;20342;-83
2022/10/08 02:21:24;;;;;;;17.17;8.52;;;13.00;99.90;;;;;;5024261;28;20391;-77
2022/10/08 02:23:59;;;;;;;13.10;7.47;;;13.00;99.90;;;;;;5030402;28;20037;-81
2022/10/08 02:26:32;;;;;;;14.10;6.93;;;12.90;99.90;;;;;;5013746;28;20116;-78
2022/10/08 02:29:02;;;;;;;13.18;7.50;;;12.90;99.90;;;;;;5035168;28;20057;-80
2022/10/08 02:31:46;;;;;;;;;;;12.90;99.90;;;;;;5029857;28;20029;-80
2022/10/08 02:34:16;;;;;;;15.48;6.68;;;12.90;99.90;;;;;;4999034;28;19914;-78
2022/10/08 02:36:57;;;;;;;15.70;7.55;;;12.80;99.90;;;;;;5008209;28;20056;-78
2022/10/08 02:39:27;;;;;;;17.90;7.80;;;12.80;99.90;;;;;;5012387;28;20034;-78
2022/10/08 02:41:58;;;;;;;12.73;7.20;;;12.80;99.90;;;;;;5003412;28;20031;-78
2022/10/08 02:44:36;;;;;;;13.93;7.35;;;12.70;99.90;;;;;;4997174;28;20117;-79
2022/10/08 02:47:08;;;;;;;14.18;7.18;;;12.60;99.90;;;;;;5023961;28;20027;-79
2022/10/08 02:49:40;;;;;;;19.58;7.70;;;12.60;99.90;;;;;;5025804;28;20037;-78
2022/10/08 02:52:09;;;;;;;13.20;7.07;;;12.50;99.90;;;;;;5027258;28;20474;-79
2022/10/08 02:54:43;;;;;;;14.60;7.75;;;12.50;99.90;;;;;;5013706;28;20038;-79
2022/10/08 02:57:09;;;;;;;13.23;7.80;;;12.50;99.90;;;;;;5012645;28;20033;-79
2022/10/08 02:59:37;;;;;;;12.27;7.15;;;12.40;99.90;;;;;;5021609;28;20053;-78
2022/10/08 03:02:08;;;;;;;15.65;6.93;;;12.40;99.90;;;;;;4994487;28;20026;-78
2022/10/08 03:04:56;;;;;;;13.38;6.93;;;12.30;99.90;;;;;;4995853;28;20484;-78
2022/10/08 03:07:28;;;;;;;14.27;7.47;;;12.90;99.90;;;;;;4983255;28;20026;-78
2022/10/08 03:09:56;;;;;;;13.75;6.53;;;12.20;99.90;;;;;;4994612;28;20428;-79
2022/10/08 03:12:34;;;;;;;13.07;6.72;;;12.20;99.90;;;;;;5013599;28;20114;-79
2022/10/08 03:15:13;;;;;;;12.23;6.53;;;12.20;99.90;;;;;;5014573;28;20057;-79
2022/10/08 03:17:44;;;;;;;13.70;7.03;;;12.10;99.90;;;;;;5000692;28;20042;-77
2022/10/08 03:20:11;;;;;;;11.02;6.65;;;12.10;99.90;;;;;;5002557;28;20077;-79
2022/10/08 03:22:38;;;;;;;11.63;6.13;;;12.00;99.90;;;;;;5015935;28;20431;-79
2022/10/08 03:25:08;;;;;;;12.02;6.00;;;12.00;99.90;;;;;;5020238;28;20488;-79
2022/10/08 03:28:11;;;;;;;12.50;5.93;;;12.00;99.90;;;;;;5020101;28;20120;-79
2022/10/08 03:30:37;;;;;;;13.98;5.97;;;12.00;99.90;;;;;;5013423;28;20026;-80
2022/10/08 03:33:08;;;;;;;17.08;6.93;;;11.90;99.90;;;;;;5018382;28;20034;-80
2022/10/08 03:35:34;;;;;;;10.82;6.35;;;11.90;99.90;;;;;;5030907;28;20033;-80
2022/10/08 03:38:01;;;;;;;12.55;6.28;;;11.80;99.90;;;;;;5011567;28;20037;-81
2022/10/08 03:40:31;;;;;;;15.27;6.72;;;11.80;99.90;;;;;;5031236;28;20053;-80
2022/10/08 03:43:00;;;;;;;12.23;6.72;;;11.80;99.90;;;;;;5029531;28;20023;-80
2022/10/08 03:45:25;;;;;;;17.10;6.68;;;11.70;99.90;;;;;;5029342;28;20049;-80
2022/10/08 03:47:52;;;;;;;12.77;6.55;;;11.70;99.90;;;;;;5024946;28;20013;-79
2022/10/08 03:50:21;;;;;;;10.25;6.78;;;11.70;99.90;;;;;;5004607;28;20030;-78
2022/10/08 03:52:48;;;;;;;12.45;6.53;;;12.40;99.90;;;;;;5011649;28;20068;-78
2022/10/08 03:55:14;;;;;;;14.65;6.97;;;13.20;99.90;;;;;;4994831;28;20519;-79
2022/10/08 03:57:40;;;;;;;11.02;6.35;;;11.60;99.90;;;;;;5014550;28;20037;-79
2022/10/08 04:00:06;;;;;;;20.88;7.50;;;11.50;99.90;;;;;;5007912;28;20467;-79
2022/10/08 04:02:35;;;;;;;15.52;7.00;;;11.50;99.90;;;;;;5011557;28;20403;-79
2022/10/08 04:05:02;;;;;;;10.80;6.43;;;11.50;99.90;;;;;;5012950;28;20032;-79
2022/10/08 04:07:29;;;;;;;19.42;7.75;;;11.50;99.90;;;;;;5005683;28;20061;-78
2022/10/08 04:09:56;;;;;;;15.05;6.53;;;11.40;99.90;;;;;;5011228;28;20057;-78
2022/10/08 04:12:22;;;;;;;13.45;6.70;;;11.50;99.90;;;;;;5011723;28;20057;-78
2022/10/08 04:14:48;;;;;;;15.35;6.53;;;11.40;99.90;;;;;;5013513;28;20103;-81
2022/10/08 04:17:14;;;;;;;12.38;6.10;;;11.30;99.90;;;;;;5008390;28;20035;-79
2022/10/08 04:19:40;;;;;;;13.13;6.38;;;11.30;99.90;;;;;;5025464;28;20025;-79
2022/10/08 04:22:06;;;;;;;11.23;6.40;;;11.20;99.90;;;;;;5022299;28;20013;-78
2022/10/08 04:24:32;;;;;;;14.27;6.07;;;11.20;99.90;;;;;;5013264;28;20034;-79
2022/10/08 04:26:59;;;;;;;11.32;6.00;;;12.10;99.90;;;;;;5010088;28;20018;-77
2022/10/08 04:29:25;;;;;;;12.43;5.72;;;11.20;99.90;;;;;;4993528;28;20109;-80
2022/10/08 04:31:50;;;;;;;10.88;6.03;;;11.10;99.90;;;;;;5011881;28;20050;-77
2022/10/08 04:34:17;;;;;;;14.82;6.82;;;12.60;99.90;;;;;;5010211;28;20022;-77
2022/10/08 04:36:43;;;;;;;12.77;6.38;;;11.10;99.90;;;;;;4994773;28;20058;-80
2022/10/08 04:39:08;;;;;;;13.52;6.65;;;11.10;99.90;;;;;;5008875;28;20104;-79
2022/10/08 04:41:34;;;;;;;10.38;6.10;;;;;;;;;;5009024;28;20135;-78
2022/10/08 04:44:00;;;;;;;13.35;5.75;;;11.10;99.90;;;;;;5003805;28;20121;-79
2022/10/08 04:46:26;;;;;;;14.10;6.50;;;12.70;99.90;;;;;;5011350;28;20152;-79
2022/10/08 04:48:54;;;;;;;9.90;5.55;;;11.00;99.90;;;;;;5012289;28;20050;-79
2022/10/08 04:51:22;;;;;;;14.20;6.05;;;11.00;99.90;;;;;;5012830;28;20551;-79
2022/10/08 04:53:49;;;;;;;15.30;6.40;;;12.60;99.90;;;;;;4992930;28;20026;-79
2022/10/08 04:56:17;;;;;;;13.15;6.22;;;10.90;99.90;;;;;;4996628;28;20044;-79
2022/10/08 04:58:44;;;;;;;10.80;5.28;;;10.90;99.90;;;;;;5019453;28;20030;-79
2022/10/08 05:01:12;;;;;;;10.98;5.20;;;10.90;99.90;;;;;;5013057;28;20038;-79
2022/10/08 05:03:41;;;;;;;9.88;5.43;;;11.90;99.90;;;;;;4991981;28;20036;-79
2022/10/08 05:06:08;;;;;;;16.07;6.33;;;10.80;99.90;;;;;;5014748;28;20044;-80
2022/10/08 05:08:33;;;;;;;12.13;5.60;;;10.80;99.90;;;;;;5009372;28;20135;-79
2022/10/08 05:11:00;;;;;;;17.70;6.07;;;10.80;99.90;;;;;;5021739;28;20022;-79
2022/10/08 05:13:26;;;;;;;16.23;6.05;;;12.40;99.90;;;;;;5017748;28;20442;-78
2022/10/08 05:15:52;;;;;;;9.35;5.53;;;10.70;99.90;;;;;;5005849;28;20101;-80
2022/10/08 05:18:17;;;;;;;12.18;6.38;;;10.70;99.90;;;;;;5000466;28;20053;-78
2022/10/08 05:20:43;;;;;;;11.90;5.47;;;10.70;99.90;;;;;;4995474;28;20056;-79
2022/10/08 05:23:09;;;;;;;9.93;5.13;;;10.90;99.90;;;;;;5018846;28;20628;-77
2022/10/08 05:25:35;;;;;;;13.60;5.70;;;10.90;99.90;;;;;;5017344;28;20049;-80
2022/10/08 05:28:02;;;;;;;15.18;5.40;;;10.60;99.90;;;;;;5017222;28;20041;-79
2022/10/08 05:30:28;;;;;;;12.20;5.45;;;10.60;99.90;;;;;;5013817;28;20029;-78
2022/10/08 05:32:53;;;;;;;11.00;5.30;;;10.80;99.90;;;;;;5018802;28;20125;-79
2022/10/08 05:35:19;;;;;;;11.73;5.10;;;10.80;99.90;;;;;;5017370;28;20443;-78
2022/10/08 05:37:45;;;;;;;11.68;5.10;;;10.40;99.90;;;;;;5019487;28;20084;-78
2022/10/08 05:40:11;;;;;;;9.50;5.20;;;10.90;99.90;;;;;;5016540;28;20033;-78
2022/10/08 05:42:36;;;;;;;11.35;5.10;;;10.40;99.90;;;;;;4989414;28;20068;-78
2022/10/08 05:45:03;;;;;;;11.85;5.18;;;10.40;99.90;;;;;;5004272;28;20026;-79
2022/10/08 05:47:28;;;;;;;10.52;5.10;;;10.40;99.90;;;;;;5004962;28;20022;-78
2022/10/08 05:49:54;;;;;;;9.15;5.13;;;10.40;99.90;;;;;;5007606;28;20056;-82
2022/10/08 05:52:20;;;;;;;11.20;5.05;;;10.40;99.90;;;;;;4998572;28;20026;-78
2022/10/08 05:54:45;;;;;;;13.60;5.90;;;10.40;99.90;;;;;;4997877;28;20040;-78
2022/10/08 05:57:11;;;;;;;12.90;6.10;;;10.40;99.90;;;;;;5014353;28;20029;-77
2022/10/08 05:59:37;;;;;;;7.75;5.45;;;10.40;99.90;;;;;;5011629;28;20026;-77
2022/10/08 06:02:03;;;;;;;10.93;5.55;;;9.80;99.90;;;;;;5017093;28;20565;-79
2022/10/08 06:04:28;;;;;;;11.68;5.68;;;10.40;99.90;;;;;;5017411;28;20100;-78
2022/10/08 06:06:54;;;;;;;10.88;5.53;;;10.40;99.90;;;;;;5011677;28;20090;-80
2022/10/08 06:09:20;;;;;;;12.20;5.30;;;10.40;99.90;;;;;;5013874;28;20022;-78
2022/10/08 06:11:47;;;;;;;10.38;5.22;;;10.40;99.90;;;;;;5013078;28;20113;-77
2022/10/08 06:14:19;;;;;;;10.48;5.82;;;11.00;99.90;;;;;;5013456;28;20498;-78
2022/10/08 06:16:45;;;;;;;11.48;5.38;;;10.40;99.90;;;;;;5020405;28;20052;-79
2022/10/08 06:19:12;;;;;;;13.13;5.85;;;10.40;99.90;;;;;;5016235;28;20050;-79
2022/10/08 06:21:37;;;;;;;11.00;5.97;;;10.40;99.90;;;;;;5016838;28;20483;-78
2022/10/08 06:24:06;;;;;;;17.60;6.03;;;10.40;99.90;;;;;;5002798;28;20283;-78
2022/10/08 06:26:37;;;;;;;12.70;6.13;;;10.40;99.90;;;;;;5010161;28;20038;-76
2022/10/08 06:31:36;;;;;;;11.90;5.30;;;;;;;;;;4989885;28;20071;-86
2022/10/08 06:34:03;;;;;;;12.52;4.93;;;;;;;;;;4981419;28;20029;-87
2022/10/08 06:36:29;;;;;;;13.07;5.18;;;;;;;;;;4990998;28;20031;-86
2022/10/08 06:38:57;;;;;;;11.57;5.63;;;10.50;99.90;;;;;;4986931;28;20033;-87
2022/10/08 06:41:24;;;;;;;8.75;5.50;;;10.50;99.90;;;;;;4969011;28;20046;-86
2022/10/08 06:43:54;;;;;;;10.77;4.93;;;;;;;;;;5004662;28;20314;-89
2022/10/08 06:46:20;;;;;;;22.70;6.57;;;;;;;;;;4991641;28;20030;-86
2022/10/08 06:48:46;;;;;;;41.92;8.80;;;;;;;;;;4990064;28;20305;-87
2022/10/08 06:51:15;;;;;;;38.83;8.80;;;10.50;99.90;;;;;;5006558;28;20030;-86
2022/10/08 06:53:42;;;;;;;16.58;6.53;;;10.50;99.90;;;;;;4987594;28;20011;-86
2022/10/08 06:56:13;;;;;;;69.50;11.55;;;10.50;99.90;;;;;;4989498;28;20037;-88
2022/10/08 06:58:43;;;;;;;45.25;10.38;;;10.10;99.90;;;;;;4992740;28;20220;-87
2022/10/08 07:01:12;;;;;;;23.33;7.68;;;;;;;;;;5003627;28;20027;-88
2022/10/08 07:03:38;;;;;;;31.60;7.22;;;10.50;99.90;;;;;;4978161;28;20058;-87
2022/10/08 07:06:08;;;;;;;20.10;7.22;;;10.50;99.90;;;;;;4986250;28;20061;-89
2022/10/08 07:08:37;;;;;;;16.75;6.30;;;10.50;99.90;;;;;;4981971;28;20027;-87
2022/10/08 07:11:09;;;;;;;16.98;6.65;;;10.50;99.90;;;;;;4982817;28;20061;-88
2022/10/08 07:13:36;;;;;;;21.83;6.80;;;10.60;99.90;;;;;;5003161;28;20042;-89
2022/10/08 07:16:13;;;;;;;17.83;5.82;;;10.60;99.90;;;;;;4987247;28;20243;-88
2022/10/08 07:18:40;;;;;;;16.77;6.25;;;10.60;99.90;;;;;;4984758;28;20058;-90
2022/10/08 07:21:07;;;;;;;22.95;6.22;;;10.70;99.90;;;;;;4987322;28;20018;-89
2022/10/08 07:23:33;;;;;;;22.83;6.75;;;;;;;;;;4991426;28;20011;-87
2022/10/08 07:26:02;;;;;;;19.00;6.50;;;10.70;99.90;;;;;;4997788;28;20023;-88
2022/10/08 07:28:31;;;;;;;16.88;6.30;;;10.80;99.90;;;;;;4993360;28;20034;-91
2022/10/08 07:30:57;;;;;;;13.18;6.10;;;;;;;;;;4993162;28;20031;-89
2022/10/08 07:33:23;;;;;;;17.45;6.25;;;;;;;;;;4995680;28;20030;-88
2022/10/08 07:35:48;;;;;;;27.00;8.63;;;10.90;99.90;;;;;;4979441;28;20019;-87
2022/10/08 07:38:17;;;;;;;16.70;6.78;;;11.10;99.90;;;;;;4996107;28;20098;-90
2022/10/08 07:40:44;;;;;;;14.60;6.70;;;;;;;;;;4999065;28;20021;-91
2022/10/08 07:43:09;;;;;;;13.90;6.07;;;11.30;99.90;;;;;;4979205;28;20041;-89
2022/10/08 07:45:42;;;;;;;14.20;5.93;;;11.30;99.90;;;;;;4985627;28;20502;-86
2022/10/08 07:48:08;;;;;;;12.10;5.85;;;;;;;;;;4988122;28;20022;-89
2022/10/08 07:50:34;;;;;;;15.60;6.38;;;;;;;;;;5001474;28;20035;-89
2022/10/08 07:53:00;;;;;;;12.15;5.82;;;;;;;;;;4988155;28;20034;-91
2022/10/08 07:55:26;;;;;;;15.38;5.82;;;;;;;;;;5004163;28;20030;-86
2022/10/08 07:57:53;;;;;;;15.32;5.60;;;;;;;;;;4999843;28;20023;-89
2022/10/08 08:00:19;;;;;;;13.30;5.50;;;;;;;;;;4993924;28;20082;-88
2022/10/08 08:02:47;;;;;;;12.65;5.13;;;12.00;99.90;;;;;;4996786;28;20095;-87
2022/10/08 08:05:12;;;;;;;12.95;4.75;;;12.00;99.90;;;;;;4971842;28;20116;-89
2022/10/08 08:07:38;;;;;;;10.23;5.28;;;12.20;99.90;;;;;;4982657;28;20031;-87
2022/10/08 08:10:07;;;;;;;9.95;4.55;;;;;;;;;;4969594;28;20033;-87
2022/10/08 08:12:33;;;;;;;10.38;4.28;;;;;;;;;;4992166;28;20019;-87
2022/10/08 08:14:59;;;;;;;9.88;4.30;;;;;;;;;;4979983;28;20045;-90
2022/10/08 08:17:26;;;;;;;14.77;5.20;;;;;;;;;;4973624;28;20011;-91
2022/10/08 08:19:52;;;;;;;10.00;4.32;;;;;;;;;;4989020;28;20122;-88
2022/10/08 08:22:18;;;;;;;9.73;4.20;;;;;;;;;;4992605;28;20019;-86
2022/10/08 08:24:44;;;;;;;7.50;4.05;;;;;;;;;;4992088;28;20015;-86
2022/10/08 08:27:10;;;;;;;13.60;4.05;;;;;;;;;;4969887;28;20018;-88
2022/10/08 08:29:36;;;;;;;10.18;3.33;;;;;;;;;;4958611;28;20019;-88
2022/10/08 08:32:02;;;;;;;11.20;4.50;;;;;;;;;;4987626;28;20039;-89
2022/10/08 08:34:29;;;;;;;8.65;3.75;;;;;;;;;;4966010;28;20070;-89
2022/10/08 08:36:55;;;;;;;8.73;3.95;;;;;;;;;;4980964;28;20014;-88
2022/10/08 08:39:23;;;;;;;13.20;3.80;;;14.30;99.90;;;;;;4987712;28;20015;-90
2022/10/08 08:42:11;;;;;;;11.43;3.88;;;14.30;99.90;;;;;;4971086;28;20019;-86
2022/10/08 08:44:38;;;;;;;8.80;3.38;;;14.30;99.90;;;;;;4969034;28;20098;-87
2022/10/08 08:47:17;;;;;;;9.13;3.28;;;14.30;99.90;;;;;;4970459;28;20035;-86
2022/10/08 08:49:55;;;;;;;13.68;4.05;;;14.30;99.90;;;;;;4987627;28;20034;-90
2022/10/08 08:52:32;;;;;;;7.43;2.60;;;14.40;99.90;;;;;;4963802;28;20061;-87
2022/10/08 08:54:58;;;;;;;15.32;3.30;;;;;;;;;;4967736;28;20022;-88
2022/10/08 08:57:39;;;;;;;10.77;2.95;;;14.70;99.90;;;;;;4988221;28;20019;-88
2022/10/08 09:00:08;;;;;;;10.68;3.50;;;;;;;;;;4982011;28;20050;-87
2022/10/08 09:02:40;;;;;;;8.70;2.63;;;15.30;99.90;;;;;;4976961;28;20026;-89
2022/10/08 09:05:11;;;;;;;9.77;3.05;;;15.20;99.90;;;;;;4971587;28;20039;-88
2022/10/08 09:07:50;;;;;;;8.77;2.60;;;15.30;99.90;;;;;;4984973;28;20044;-87
2022/10/08 09:10:21;;;;;;;9.63;2.67;;;15.40;99.90;;;;;;4977851;28;20057;-90
2022/10/08 09:12:47;;;;;;;10.02;2.65;;;;;;;;;;4986213;28;20050;-88
2022/10/08 09:15:20;;;;;;;12.07;2.83;;;15.40;99.90;;;;;;4994293;28;20027;-90
2022/10/08 09:17:50;;;;;;;6.40;2.65;;;15.40;99.90;;;;;;4992473;28;20018;-90
2022/10/08 09:20:18;;;;;;;12.02;2.53;;;15.40;99.90;;;;;;4989212;28;20015;-88
2022/10/08 09:22:44;;;;;;;9.48;2.60;;;;;;;;;;4979373;28;20102;-90
2022/10/08 09:25:18;;;;;;;10.02;2.63;;;15.70;99.90;;;;;;4986657;28;20039;-89
2022/10/08 09:27:44;;;;;;;11.95;2.60;;;;;;;;;;4992832;28;20030;-89
2022/10/08 09:30:25;;;;;;;6.30;2.00;;;;;;;;;;4967020;28;20037;-90
2022/10/08 09:32:53;;;;;;;8.00;2.08;;;16.10;99.90;;;;;;4989362;28;20050;-89
2022/10/08 09:35:19;;;;;;;8.35;2.33;;;16.10;99.90;;;;;;4969098;28;20029;-90
2022/10/08 09:37:46;;;;;;;12.18;3.30;;;16.30;99.90;;;;;;4980962;28;20030;-89
2022/10/08 09:40:12;;;;;;;10.90;2.40;;;;;;;;;;4996371;28;20018;-89
2022/10/08 09:42:39;;;;;;;9.00;2.13;;;16.40;99.90;;;;;;4994663;28;20023;-89
2022/10/08 09:45:28;;;;;;;7.38;2.83;;;16.50;99.90;;;;;;4986413;28;20030;-90
2022/10/08 09:48:18;;;;;;;7.57;1.65;;;16.60;99.90;;;;;;5004233;28;20968;-88
2022/10/08 09:50:55;;;;;;;10.07;2.00;;;16.80;99.90;;;;;;5020041;22;20046;-88
2022/10/08 09:53:23;;;;;;;7.75;1.30;;;16.90;99.90;;;;;;5032694;28;20038;-88
2022/10/08 09:56:01;;;;;;;10.18;2.20;;;16.90;99.90;;;;;;5029006;28;20558;-88
2022/10/08 09:58:31;;;;;;;7.93;2.53;;;16.90;99.90;;;;;;5017691;28;20050;-86
2022/10/08 10:01:14;;;;;;;6.72;2.03;;;16.90;99.90;;;;;;5032719;28;20025;-87
2022/10/08 10:03:52;;;;;;;8.15;3.15;;;16.90;99.90;;;;;;5017508;28;20030;-88
2022/10/08 10:09:00;;;;;;;6.90;2.10;;;16.80;99.90;;;;;;5049015;28;20188;-87
2022/10/08 12:34:54;;;;;;;8.57;2.17;;;;;;;;;;5042602;28;20091;-85
2022/10/08 12:37:49;;;;;;;11.88;2.30;;;18.00;99.90;;;;;;5051935;28;20056;-86
2022/10/08 12:40:23;;;;;;;8.18;2.38;;;18.30;99.90;;;;;;5046409;28;20022;-85
2022/10/08 12:42:57;;;;;;;5.90;2.30;;;18.50;99.90;;;;;;5029011;28;20058;-84
2022/10/08 12:45:33;;;;;;;6.28;2.33;;;18.50;99.90;;;;;;5015938;28;20041;-84
2022/10/08 12:48:09;;;;;;;5.82;1.95;;;18.60;99.90;;;;;;5022514;28;20057;-85
2022/10/08 12:50:59;;;;;;;11.68;2.25;;;18.70;99.90;;;;;;5024068;28;20036;-82
2022/10/08 12:53:25;;;;;;;8.23;2.05;;;;;;;;;;5025428;28;20108;-84
2022/10/08 12:55:55;;;;;;;9.00;2.10;;;19.00;99.90;;;;;;5022564;28;20117;-82
2022/10/08 12:58:24;;;;;;;9.65;3.45;;;19.00;99.90;;;;;;5029660;28;20057;-85
2022/10/08 13:00:54;;;;;;;6.25;2.83;;;18.90;99.90;;;;;;5019622;28;20053;-84
2022/10/08 13:03:20;;;;;;;8.73;2.72;;;18.70;99.90;;;;;;5042756;28;20038;-84
2022/10/08 13:05:49;;;;;;;8.55;2.20;;;18.50;99.90;;;;;;5022725;28;20049;-84
2022/10/08 13:08:36;;;;;;;8.38;1.80;;;18.30;99.90;;;;;;5025874;28;20079;-85
2022/10/08 13:11:11;;;;;;;7.28;2.83;;;18.20;99.90;;;;;;5024298;28;20041;-85
2022/10/08 13:13:47;;;;;;;8.52;2.47;;;18.00;99.90;;;;;;5039073;28;20022;-86
2022/10/08 13:16:24;;;;;;;10.38;2.45;;;18.00;99.90;;;;;;5025239;28;20032;-85
2022/10/08 13:18:53;;;;;;;8.93;2.50;;;17.90;99.90;;;;;;5027840;28;20097;-83
2022/10/08 13:21:30;;;;;;;7.55;2.03;;;18.00;99.90;;;;;;5025275;28;20029;-82
2022/10/08 13:24:25;;;;;;;9.20;2.17;;;17.90;99.90;;;;;;5026245;28;20025;-85
2022/10/08 13:26:55;;;;;;;10.43;3.00;;;17.80;99.90;;;;;;5035661;28;20172;-83
2022/10/08 13:29:20;;;;;;;8.57;2.40;;;;;;;;;;5030305;28;20025;-86
2022/10/08 13:32:15;;;;;;;9.55;2.45;;;17.70;99.90;;;;;;5038628;28;20041;-88
2022/10/08 13:34:47;;;;;;;6.10;1.77;;;17.50;99.90;;;;;;5040225;28;20024;-87
2022/10/08 13:37:13;;;;;;;9.15;2.65;;;;;;;;;;5038097;28;20030;-86
2022/10/08 13:39:41;;;;;;;9.38;2.22;;;17.40;99.90;;;;;;5033151;28;20349;-84
2022/10/08 13:42:13;;;;;;;7.80;2.17;;;17.50;99.90;;;;;;5019271;28;20030;-81
2022/10/08 13:44:40;;;;;;;4.82;2.05;;;17.50;99.90;;;;;;5028990;28;20502;-84
2022/10/08 13:47:13;;;;;;;5.72;2.30;;;17.60;99.90;;;;;;5016477;28;20029;-83
2022/10/08 13:49:39;;;;;;;8.02;2.03;;;;;;;;;;5026992;28;20022;-86
2022/10/08 13:52:05;;;;;;;12.45;2.50;;;;;;;;;;5036098;28;20030;-86
2022/10/08 13:54:33;;;;;;;9.40;2.30;;;17.70;99.90;;;;;;5019476;28;20022;-84
2022/10/08 13:56:59;;;;;;;11.73;2.55;;;17.80;99.90;;;;;;5037217;28;20057;-86
2022/10/08 13:59:25;;;;;;;10.43;2.78;;;;;;;;;;5018619;28;20037;-84
2022/10/08 14:01:51;;;;;;;7.65;2.45;;;;;;;;;;5017290;28;20435;-88
2022/10/08 14:04:17;;;;;;;11.18;3.50;;;;;;;;;;5021644;28;20086;-85
2022/10/08 14:06:49;;;;;;;12.25;3.38;;;17.90;99.90;;;;;;5035816;28;20030;-86
2022/10/08 14:09:18;;;;;;;6.57;2.75;;;18.10;99.90;;;;;;5016866;28;20042;-84
2022/10/08 14:11:46;;;;;;;7.72;2.50;;;;;;;;;;5019541;28;20033;-85
2022/10/08 14:14:13;;;;;;;8.63;2.53;;;18.00;99.90;;;;;;5032378;28;20383;-85
2022/10/08 14:16:40;;;;;;;7.80;2.33;;;;;;;;;;5039285;28;20037;-84
2022/10/08 14:19:06;;;;;;;7.82;2.90;;;;;;;;;;5046576;28;20026;-85
2022/10/08 14:21:32;;;;;;;8.68;2.92;;;;;;;;;;5021377;28;20029;-86
2022/10/08 14:23:58;;;;;;;8.48;2.10;;;;;;;;;;5036986;28;20083;-84
2022/10/08 14:26:23;;;;;;;7.32;1.95;;;18.10;99.90;;;;;;5027637;28;20034;-84
2022/10/08 14:28:49;;;;;;;8.07;2.25;;;;;;;;;;5014088;28;20026;-85
2022/10/08 14:31:15;;;;;;;8.70;1.90;;;18.10;99.90;;;;;;5013975;28;20027;-84
2022/10/08 14:33:43;;;;;;;6.93;1.83;;;18.20;99.90;;;;;;5014809;28;20033;-87
2022/10/08 14:36:20;;;;;;;7.55;2.08;;;18.10;99.90;;;;;;5007701;28;20030;-84
2022/10/08 14:38:47;;;;;;;5.97;1.67;;;;;;;;;;5030613;28;20044;-86
2022/10/08 14:41:13;;;;;;;9.70;2.33;;;;;;;;;;5015057;28;20661;-84
2022/10/08 14:43:39;;;;;;;7.15;1.92;;;18.30;99.90;;;;;;5030484;28;20029;-85
2022/10/08 14:46:05;;;;;;;6.57;1.92;;;;;;;;;;5011160;28;20113;-85
2022/10/08 14:48:31;;;;;;;4.80;1.80;;;;;;;;;;5019715;28;20037;-86
2022/10/08 14:50:58;;;;;;;5.60;1.88;;;;;;;;;;5031575;28;20030;-86
2022/10/08 14:53:24;;;;;;;4.47;1.55;;;18.40;99.90;;;;;;5029298;28;20022;-86
2022/10/08 14:55:50;;;;;;;17.13;8.85;;;;;;;;;;5025787;28;20049;-84
2022/10/08 14:58:16;;;;;;;7.68;2.10;;;;;;;;;;5023006;28;20104;-85
2022/10/08 15:00:42;;;;;;;6.60;1.70;;;;;;;;;;5009712;28;20070;-87
2022/10/08 15:03:09;;;;;;;5.18;1.60;;;;;;;;;;5020580;28;20044;-85
2022/10/08 15:05:34;;;;;;;7.03;1.60;;;18.30;99.70;;;;;;5037614;28;20026;-86
2022/10/08 15:08:00;;;;;;;8.73;2.22;;;;;;;;;;5043051;28;20049;-83
2022/10/08 15:10:26;;;;;;;6.85;2.03;;;;;;;;;;5028629;28;20049;-87
2022/10/08 15:12:55;;;;;;;5.20;2.15;;;18.20;99.50;;;;;;5019449;28;20034;-84
2022/10/08 15:15:21;;;;;;;5.47;2.28;;;;;;;;;;5020324;28;20021;-83
2022/10/08 15:17:47;;;;;;;6.35;1.70;;;;;;;;;;5015326;28;20037;-86
2022/10/08 15:20:14;;;;;;;3.63;1.50;;;;;;;;;;5017616;28;20026;-85
2022/10/08 15:22:40;;;;;;;4.65;1.75;;;;;;;;;;5023955;28;20031;-82
2022/10/08 15:25:20;;;;;;;6.63;2.00;;;;;;;;;;5022473;28;20022;-83
2022/10/08 15:27:46;;;;;;;6.80;2.15;;;;;;;;;;5032487;28;20018;-85
2022/10/08 15:30:13;;;;;;;5.60;1.65;;;;;;;;;;5021779;28;20090;-86
2022/10/08 15:32:41;;;;;;;7.63;2.13;;;;;;;;;;5040873;28;20060;-85
2022/10/08 15:35:18;;;;;;;6.13;2.03;;;;;;;;;;5016757;28;20040;-83
2022/10/08 15:37:44;;;;;;;9.05;2.60;;;;;;;;;;5038505;28;20053;-86
2022/10/08 15:40:10;;;;;;;6.85;2.20;;;;;;;;;;5037582;28;20056;-86
2022/10/08 15:42:39;;;;;;;6.32;2.00;;;;;;;;;;5019748;28;20029;-88
2022/10/08 15:45:06;;;;;;;8.55;3.30;;;;;;;;;;5028367;28;20086;-85
2022/10/08 15:47:32;;;;;;;7.60;3.38;;;;;;;;;;5049705;28;20026;-86
2022/10/08 15:50:05;;;;;;;9.05;2.55;;;;;;;;;;5035449;28;20010;-86